createdAt,value
2023-03-21T00:00:29.519Z,7.06
2023-03-21T00:02:55.985Z,7.14
2023-03-21T00:05:22.758Z,7.30
2023-03-21T00:07:49.329Z,7.06
2023-03-21T00:10:23.981Z,6.89
2023-03-21T00:12:58.464Z,6.91
2023-03-21T00:15:39.291Z,6.84
2023-03-21T00:18:11.870Z,6.93
2023-03-21T00:20:38.932Z,6.96
2023-03-21T00:23:05.680Z,6.96
2023-03-21T00:25:33.019Z,7.06
2023-03-21T00:28:07.777Z,6.96
2023-03-21T00:30:35.379Z,6.95
2023-03-21T00:33:08.959Z,7.00
2023-03-21T00:36:05.795Z,7.00
2023-03-21T00:38:34.169Z,6.81
2023-03-21T00:41:04.660Z,6.78
2023-03-21T00:43:31.300Z,6.71
2023-03-21T00:45:58.913Z,6.71
2023-03-21T00:48:26.924Z,6.69
2023-03-21T00:50:55.532Z,6.71
2023-03-21T00:53:21.955Z,6.78
2023-03-21T00:55:48.841Z,6.71
2023-03-21T00:58:16.274Z,6.57
2023-03-21T01:00:44.375Z,6.57
2023-03-21T01:03:23.571Z,6.57
2023-03-21T01:06:07.000Z,6.55
2023-03-21T01:08:55.007Z,6.62
2023-03-21T01:11:24.780Z,6.58
2023-03-21T01:13:57.872Z,6.72
2023-03-21T01:16:31.435Z,6.66
2023-03-21T01:18:59.534Z,6.68
2023-03-21T01:21:26.300Z,6.77
2023-03-21T01:23:52.743Z,6.73
2023-03-21T01:26:19.496Z,6.79
2023-03-21T01:28:45.976Z,6.75
2023-03-21T01:31:14.639Z,6.79
2023-03-21T01:33:41.927Z,6.62
2023-03-21T01:36:14.350Z,6.47
2023-03-21T01:38:42.751Z,6.54
2023-03-21T01:41:47.270Z,6.57
2023-03-21T01:44:19.872Z,6.57
2023-03-21T01:47:09.731Z,6.59
2023-03-21T01:49:50.910Z,6.64
2023-03-21T01:52:38.088Z,6.63
2023-03-21T01:55:14.313Z,6.62
2023-03-21T01:58:05.492Z,6.55
2023-03-21T02:00:47.094Z,6.46
2023-03-21T02:03:35.669Z,6.49
2023-03-21T02:06:24.496Z,6.52
2023-03-21T02:08:55.465Z,6.51
2023-03-21T02:11:23.729Z,6.36
2023-03-21T02:13:55.853Z,6.35
2023-03-21T02:16:48.174Z,6.29
2023-03-21T02:19:31.987Z,6.07
2023-03-21T02:22:26.920Z,6.26
2023-03-21T02:25:25.206Z,6.28
2023-03-21T02:28:04.734Z,6.34
2023-03-21T02:30:53.255Z,6.30
2023-03-21T02:33:48.538Z,6.25
2023-03-21T02:36:44.799Z,6.19
2023-03-21T02:39:19.881Z,6.12
2023-03-21T02:42:04.802Z,6.21
2023-03-21T02:44:49.292Z,6.23
2023-03-21T02:47:37.434Z,6.26
2023-03-21T02:50:17.937Z,6.22
2023-03-21T02:52:48.152Z,6.08
2023-03-21T02:55:19.998Z,5.89
2023-03-21T02:57:56.501Z,5.96
2023-03-21T03:00:27.523Z,5.95
2023-03-21T03:03:08.184Z,5.94
2023-03-21T03:05:41.206Z,5.94
2023-03-21T03:09:15.702Z,6.01
2023-03-21T03:11:44.641Z,5.98
2023-03-21T03:14:38.480Z,6.00
2023-03-21T03:17:28.425Z,5.97
2023-03-21T03:20:16.624Z,6.00
2023-03-21T03:22:52.677Z,6.03
2023-03-21T03:25:36.079Z,5.98
2023-03-21T03:28:09.371Z,6.03
2023-03-21T03:30:43.374Z,6.03
2023-03-21T03:33:17.884Z,5.97
2023-03-21T03:35:53.078Z,5.95
2023-03-21T03:38:31.707Z,5.90
2023-03-21T03:41:08.013Z,5.95
2023-03-21T03:43:53.904Z,5.93
2023-03-21T03:46:33.229Z,5.87
2023-03-21T03:49:10.745Z,5.88
2023-03-21T03:51:54.801Z,5.82
2023-03-21T03:54:47.451Z,5.65
2023-03-21T03:57:16.076Z,5.68
2023-03-21T03:59:44.422Z,5.72
2023-03-21T04:02:14.737Z,5.72
2023-03-21T04:04:41.980Z,5.74
2023-03-21T04:07:09.024Z,5.77
2023-03-21T04:09:44.185Z,5.82
2023-03-21T04:12:14.080Z,5.79
2023-03-21T04:14:46.008Z,5.82
2023-03-21T04:17:18.624Z,5.83
2023-03-21T04:19:46.236Z,5.84
2023-03-21T04:22:13.447Z,5.81
2023-03-21T04:24:42.857Z,5.76
2023-03-21T04:27:09.799Z,5.72
2023-03-21T04:29:41.228Z,5.63
2023-03-21T04:32:26.097Z,5.64
2023-03-21T04:35:02.330Z,5.72
2023-03-21T04:37:29.436Z,5.75
2023-03-21T04:39:55.932Z,5.63
2023-03-21T04:42:22.678Z,5.66
2023-03-21T04:44:49.443Z,5.73
2023-03-21T04:47:16.827Z,5.76
2023-03-21T04:49:43.488Z,5.73
2023-03-21T04:52:11.384Z,5.76
2023-03-21T04:54:37.826Z,5.69
2023-03-21T04:57:04.814Z,5.71
2023-03-21T04:59:31.641Z,5.68
2023-03-21T05:01:58.528Z,5.71
2023-03-21T05:04:26.826Z,5.66
2023-03-21T05:06:54.412Z,5.66
2023-03-21T05:09:22.170Z,5.84
2023-03-21T05:11:49.123Z,5.78
2023-03-21T05:14:20.565Z,5.82
2023-03-21T05:16:53.474Z,5.71
2023-03-21T05:19:34.833Z,5.81
2023-03-21T05:22:05.378Z,5.76
2023-03-21T05:24:33.111Z,5.68
2023-03-21T05:27:02.653Z,5.60
2023-03-21T05:29:33.354Z,5.55
2023-03-21T05:32:05.634Z,5.52
2023-03-21T05:34:32.064Z,5.60
2023-03-21T05:36:59.560Z,5.66
2023-03-21T05:39:35.573Z,5.80
2023-03-21T05:42:07.745Z,5.86
2023-03-21T05:44:34.524Z,5.89
2023-03-21T05:47:06.524Z,5.95
2023-03-21T05:49:44.213Z,5.96
2023-03-21T05:52:11.198Z,5.99
2023-03-21T05:54:38.000Z,5.96
2023-03-21T05:57:05.417Z,5.97
2023-03-21T05:59:50.976Z,5.99
2023-03-21T06:02:18.857Z,6.01
2023-03-21T06:04:46.695Z,6.08
2023-03-21T06:07:13.196Z,6.10
2023-03-21T06:09:41.022Z,6.08
2023-03-21T06:12:07.795Z,5.92
2023-03-21T06:14:57.076Z,5.76
2023-03-21T06:17:30.009Z,6.13
2023-03-21T06:20:02.867Z,6.19
2023-03-21T06:22:37.849Z,6.17
2023-03-21T06:25:07.399Z,6.21
2023-03-21T06:27:34.532Z,6.14
2023-03-21T06:30:01.644Z,6.29
2023-03-21T06:32:34.279Z,6.36
2023-03-21T06:35:08.545Z,6.41
2023-03-21T06:37:35.867Z,6.46
2023-03-21T06:40:05.031Z,6.49
2023-03-21T06:42:32.493Z,6.55
2023-03-21T06:45:06.576Z,6.58
2023-03-21T06:47:33.008Z,6.69
2023-03-21T06:50:00.745Z,6.73
2023-03-21T06:52:27.335Z,6.84
2023-03-21T06:54:53.879Z,6.89
2023-03-21T06:57:21.922Z,7.10
2023-03-21T06:59:49.497Z,7.11
2023-03-21T07:02:19.910Z,7.48
2023-03-21T07:05:01.630Z,7.62
2023-03-21T07:07:29.730Z,7.68
2023-03-21T07:09:56.431Z,7.69
2023-03-21T07:12:23.969Z,7.74
2023-03-21T07:15:06.886Z,7.79
2023-03-21T07:17:33.743Z,7.83
2023-03-21T07:20:00.588Z,7.92
2023-03-21T07:22:27.133Z,7.99
2023-03-21T07:25:04.469Z,8.02
2023-03-21T07:27:40.669Z,8.12
2023-03-21T07:30:08.305Z,8.18
2023-03-21T07:32:37.875Z,8.29
2023-03-21T07:35:06.873Z,8.17
2023-03-21T07:37:33.345Z,8.37
2023-03-21T07:40:00.196Z,8.20
2023-03-21T07:42:26.603Z,8.39
2023-03-21T07:44:59.147Z,8.58
2023-03-21T07:47:26.723Z,8.75
2023-03-21T07:49:53.206Z,8.88
2023-03-21T07:52:19.726Z,8.99
2023-03-21T07:54:46.235Z,9.06
2023-03-21T07:57:13.820Z,9.08
2023-03-21T07:59:40.371Z,9.09
2023-03-21T08:02:07.258Z,9.13
2023-03-21T08:04:35.038Z,9.19
2023-03-21T08:07:01.747Z,9.21
2023-03-21T08:09:30.135Z,9.28
2023-03-21T08:11:57.495Z,9.30
2023-03-21T08:14:23.953Z,9.23
2023-03-21T08:16:50.731Z,9.17
2023-03-21T08:19:20.635Z,9.15
2023-03-21T08:21:50.990Z,9.12
2023-03-21T08:24:17.501Z,9.13
2023-03-21T08:26:45.901Z,8.99
2023-03-21T08:29:13.739Z,9.08
2023-03-21T08:31:41.291Z,9.21
2023-03-21T08:34:08.021Z,9.36
2023-03-21T08:36:36.842Z,9.35
2023-03-21T08:39:05.501Z,9.50
2023-03-21T08:41:33.707Z,9.69
2023-03-21T08:44:00.243Z,9.84
2023-03-21T08:46:27.103Z,10.01
2023-03-21T08:48:54.449Z,10.27
2023-03-21T08:51:21.184Z,10.67
2023-03-21T08:53:50.856Z,11.06
2023-03-21T08:56:18.300Z,11.33
2023-03-21T08:58:45.339Z,11.56
2023-03-21T09:01:15.454Z,11.74
2023-03-21T09:03:42.788Z,11.72
2023-03-21T09:06:10.742Z,11.60
2023-03-21T09:08:38.247Z,11.45
2023-03-21T09:11:04.874Z,11.33
2023-03-21T09:13:31.270Z,11.23
2023-03-21T09:16:01.221Z,11.15
2023-03-21T09:18:39.037Z,11.16
2023-03-21T09:21:12.682Z,11.13
2023-03-21T09:23:40.110Z,11.15
2023-03-21T09:26:11.226Z,11.17
2023-03-21T09:28:39.145Z,11.14
2023-03-21T09:31:06.530Z,11.08
2023-03-21T09:33:33.190Z,10.98
2023-03-21T09:36:00.425Z,11.04
2023-03-21T09:38:30.414Z,11.09
2023-03-21T09:41:18.288Z,11.13
2023-03-21T09:44:15.616Z,11.21
2023-03-21T09:47:02.460Z,11.28
2023-03-21T09:49:43.543Z,11.27
2023-03-21T09:52:16.859Z,11.21
2023-03-21T09:54:44.675Z,11.35
2023-03-21T09:57:38.068Z,11.35
2023-03-21T10:00:15.814Z,11.40
2023-03-21T10:02:49.511Z,11.44
2023-03-21T10:05:27.102Z,11.45
2023-03-21T10:07:59.970Z,11.53
2023-03-21T10:10:37.398Z,11.57
2023-03-21T10:13:07.445Z,11.61
2023-03-21T10:15:33.880Z,11.61
2023-03-21T10:18:07.138Z,11.66
2023-03-21T10:20:38.334Z,11.69
2023-03-21T10:23:08.060Z,11.63
2023-03-21T10:25:38.077Z,11.73
2023-03-21T10:28:07.549Z,11.68
2023-03-21T10:30:44.370Z,11.76
2023-03-21T10:33:18.264Z,11.76
2023-03-21T10:35:49.397Z,11.79
2023-03-21T10:38:19.906Z,11.81
2023-03-21T10:40:46.677Z,11.81
2023-03-21T10:43:34.261Z,11.88
2023-03-21T10:46:13.410Z,11.92
2023-03-21T10:48:46.312Z,12.05
2023-03-21T10:51:19.204Z,12.24
2023-03-21T10:53:51.683Z,12.29
2023-03-21T10:56:18.905Z,12.48
2023-03-21T10:58:47.038Z,12.68
2023-03-21T11:01:26.015Z,12.87
2023-03-21T11:03:58.028Z,13.15
2023-03-21T11:06:46.877Z,13.28
2023-03-21T11:09:20.234Z,13.35
2023-03-21T11:12:10.918Z,13.57
2023-03-21T11:14:41.695Z,13.76
2023-03-21T11:17:17.019Z,13.88
2023-03-21T11:19:56.825Z,13.95
2023-03-21T11:22:27.278Z,13.90
2023-03-21T11:24:59.274Z,14.02
2023-03-21T11:27:31.107Z,14.03
2023-03-21T11:30:01.621Z,14.08
2023-03-21T11:32:36.052Z,14.16
2023-03-21T11:35:21.092Z,14.22
2023-03-21T11:37:55.190Z,14.18
2023-03-21T11:40:23.542Z,14.18
2023-03-21T11:42:58.817Z,14.11
2023-03-21T11:45:31.069Z,14.12
2023-03-21T11:48:00.233Z,14.11
2023-03-21T11:50:27.127Z,14.12
2023-03-21T11:53:28.081Z,14.19
2023-03-21T11:56:09.900Z,14.20
2023-03-21T11:58:47.016Z,14.07
2023-03-21T12:01:27.519Z,14.24
2023-03-21T12:04:07.299Z,14.21
2023-03-21T12:06:40.558Z,14.25
2023-03-21T12:09:25.786Z,14.14
2023-03-21T12:12:29.975Z,14.17
2023-03-21T12:15:17.683Z,14.12
2023-03-21T12:17:53.236Z,14.13
2023-03-21T12:20:56.622Z,13.99
2023-03-21T12:23:23.108Z,13.91
2023-03-21T12:26:29.368Z,13.80
2023-03-21T12:29:23.283Z,13.82
2023-03-21T12:32:08.100Z,13.82
2023-03-21T12:35:03.820Z,13.85
2023-03-21T12:37:45.209Z,13.77
2023-03-21T12:40:36.223Z,13.75
2023-03-21T12:43:24.351Z,13.67
2023-03-21T12:45:57.855Z,13.59
2023-03-21T12:48:28.292Z,13.52
2023-03-21T12:50:58.421Z,13.41
2023-03-21T12:53:53.115Z,13.32
2023-03-21T12:56:25.382Z,13.13
2023-03-21T12:58:57.844Z,13.09
2023-03-21T13:01:25.631Z,13.04
2023-03-21T13:04:07.101Z,12.91
2023-03-21T13:06:36.566Z,12.80
2023-03-21T13:09:13.267Z,12.70
2023-03-21T13:11:40.356Z,12.50
2023-03-21T13:14:29.946Z,12.53
2023-03-21T13:17:10.755Z,12.40
2023-03-21T13:19:47.303Z,12.35
2023-03-21T13:22:26.397Z,12.21
2023-03-21T13:25:19.386Z,12.16
2023-03-21T13:27:52.977Z,12.08
2023-03-21T13:30:22.871Z,12.05
2023-03-21T13:32:51.436Z,11.91
2023-03-21T13:35:38.341Z,11.58
2023-03-21T13:38:12.740Z,11.23
2023-03-21T13:40:49.187Z,11.36
2023-03-21T13:43:38.878Z,11.16
2023-03-21T13:46:07.381Z,11.16
2023-03-21T13:49:05.474Z,11.14
2023-03-21T13:51:31.855Z,11.24
2023-03-21T13:54:29.916Z,11.12
2023-03-21T13:57:01.240Z,11.21
2023-03-21T13:59:39.158Z,11.22
2023-03-21T14:02:28.775Z,11.22
2023-03-21T14:05:07.051Z,11.17
2023-03-21T14:07:47.428Z,11.01
2023-03-21T14:10:30.689Z,10.94
2023-03-21T14:12:57.395Z,10.97
2023-03-21T14:15:46.403Z,10.86
2023-03-21T14:18:28.038Z,10.72
2023-03-21T14:21:09.225Z,10.80
2023-03-21T14:23:38.612Z,10.80
2023-03-21T14:26:06.213Z,10.83
2023-03-21T14:28:33.561Z,10.91
2023-03-21T14:31:01.064Z,10.97
2023-03-21T14:33:32.794Z,11.00
2023-03-21T14:36:04.129Z,10.97
2023-03-21T14:38:37.164Z,10.97
2023-03-21T14:41:04.416Z,10.92
2023-03-21T14:43:33.987Z,10.95
2023-03-21T14:46:01.143Z,10.97
2023-03-21T14:48:34.811Z,11.09
2023-03-21T14:51:09.139Z,11.08
2023-03-21T14:53:41.006Z,11.14
2023-03-21T14:56:17.025Z,11.12
2023-03-21T14:58:46.235Z,11.19
2023-03-21T15:01:17.375Z,11.25
2023-03-21T15:03:46.199Z,11.21
2023-03-21T15:06:14.467Z,11.13
2023-03-21T15:08:54.884Z,11.26
2023-03-21T15:11:36.580Z,11.09
2023-03-21T15:14:06.821Z,11.11
2023-03-21T15:16:34.460Z,11.13
2023-03-21T15:19:02.196Z,11.00
2023-03-21T15:21:42.187Z,11.01
2023-03-21T15:24:20.929Z,11.05
2023-03-21T15:26:49.606Z,11.10
2023-03-21T15:29:17.650Z,11.17
2023-03-21T15:31:46.717Z,11.25
2023-03-21T15:34:42.577Z,11.22
2023-03-21T15:37:16.938Z,11.28
2023-03-21T15:39:43.649Z,11.28
2023-03-21T15:42:34.096Z,11.30
2023-03-21T15:45:02.578Z,11.34
2023-03-21T15:47:58.837Z,11.32
2023-03-21T15:50:29.547Z,11.37
2023-03-21T15:53:00.656Z,11.24
2023-03-21T15:55:42.598Z,11.22
2023-03-21T15:58:16.167Z,11.20
2023-03-21T16:00:57.428Z,11.18
2023-03-21T16:03:30.400Z,11.18
2023-03-21T16:06:04.281Z,11.22
2023-03-21T16:09:09.263Z,11.27
2023-03-21T16:11:47.763Z,11.30
2023-03-21T16:14:14.192Z,11.28
2023-03-21T16:16:40.820Z,11.09
2023-03-21T16:19:07.485Z,11.09
2023-03-21T16:21:35.249Z,11.18
2023-03-21T16:24:02.143Z,11.14
2023-03-21T16:26:35.750Z,11.14
2023-03-21T16:29:03.281Z,11.12
2023-03-21T16:31:33.027Z,11.17
2023-03-21T16:33:59.559Z,11.19
2023-03-21T16:36:29.473Z,11.20
2023-03-21T16:38:56.473Z,11.12
2023-03-21T16:41:25.395Z,11.03
2023-03-21T16:43:52.241Z,11.02
2023-03-21T16:46:24.729Z,10.98
2023-03-21T16:48:54.435Z,10.98
2023-03-21T16:51:33.297Z,11.11
2023-03-21T16:54:00.503Z,11.11
2023-03-21T16:56:31.058Z,10.95
2023-03-21T16:58:57.922Z,10.91
2023-03-21T17:01:29.959Z,10.93
2023-03-21T17:03:57.826Z,11.01
2023-03-21T17:06:27.598Z,10.98
2023-03-21T17:08:55.655Z,10.98
2023-03-21T17:11:23.831Z,10.99
2023-03-21T17:13:52.416Z,11.00
2023-03-21T17:16:25.459Z,10.97
2023-03-21T17:18:53.110Z,10.99
2023-03-21T17:21:21.903Z,10.97
2023-03-21T17:23:50.132Z,10.94
2023-03-21T17:26:21.070Z,10.86
2023-03-21T17:28:47.842Z,10.71
2023-03-21T17:31:16.742Z,10.80
2023-03-21T17:33:43.832Z,10.66
2023-03-21T17:36:24.623Z,10.72
2023-03-21T17:38:52.742Z,10.66
2023-03-21T17:41:20.497Z,10.67
2023-03-21T17:43:47.143Z,10.68
2023-03-21T17:46:16.561Z,10.68
2023-03-21T17:48:44.929Z,10.54
2023-03-21T17:51:14.752Z,10.53
2023-03-21T17:53:45.120Z,10.52
2023-03-21T17:56:17.619Z,10.46
2023-03-21T17:58:44.358Z,10.43
2023-03-21T18:01:10.910Z,10.38
2023-03-21T18:03:37.339Z,10.31
2023-03-21T18:06:04.583Z,10.29
2023-03-21T18:08:31.259Z,10.12
2023-03-21T18:10:58.080Z,10.09
2023-03-21T18:13:25.361Z,10.15
2023-03-21T18:15:52.883Z,10.11
2023-03-21T18:18:19.495Z,10.12
2023-03-21T18:20:52.153Z,10.03
2023-03-21T18:23:19.433Z,9.97
2023-03-21T18:25:46.215Z,9.84
2023-03-21T18:28:13.236Z,9.58
2023-03-21T18:31:05.196Z,9.61
2023-03-21T18:33:27.701Z,9.50
2023-03-21T18:35:58.944Z,9.54
2023-03-21T18:38:27.418Z,9.57
2023-03-21T18:40:54.527Z,9.51
2023-03-21T18:46:08.270Z,9.45
2023-03-21T18:48:35.668Z,9.35
2023-03-21T18:51:02.902Z,9.23
2023-03-21T18:53:29.825Z,9.06
2023-03-21T18:55:57.475Z,9.13
2023-03-21T18:58:24.744Z,9.09
2023-03-21T19:00:53.390Z,9.10
2023-03-21T19:03:34.272Z,9.04
2023-03-21T19:06:03.739Z,9.02
2023-03-21T19:08:30.772Z,8.75
2023-03-21T19:11:00.177Z,8.40
2023-03-21T19:13:28.174Z,8.67
2023-03-21T19:15:54.558Z,8.59
2023-03-21T19:21:08.150Z,8.73
2023-03-21T19:23:59.273Z,8.76
2023-03-21T19:26:22.069Z,8.67
2023-03-21T19:28:48.505Z,8.61
2023-03-21T19:31:14.964Z,8.58
2023-03-21T19:33:41.471Z,8.65
2023-03-21T19:36:17.995Z,8.60
2023-03-21T19:38:44.844Z,8.48
2023-03-21T19:41:11.308Z,8.50
2023-03-21T19:43:40.012Z,8.37
2023-03-21T19:46:06.893Z,8.39
2023-03-21T19:48:33.699Z,8.41
2023-03-21T19:51:36.411Z,8.35
2023-03-21T19:53:49.262Z,8.86
2023-03-21T19:56:22.466Z,9.04
2023-03-21T19:58:50.575Z,8.92
2023-03-21T20:01:17.144Z,8.65
2023-03-21T20:03:44.413Z,8.54
2023-03-21T20:06:11.630Z,8.34
2023-03-21T20:09:05.277Z,8.24
2023-03-21T20:11:24.543Z,8.16
2023-03-21T20:13:51.171Z,8.01
2023-03-21T20:16:18.401Z,7.74
2023-03-21T20:18:46.065Z,7.45
2023-03-21T20:21:17.737Z,7.00
2023-03-21T20:23:49.212Z,6.99
2023-03-21T20:26:16.763Z,6.90
2023-03-21T20:28:56.107Z,6.85
2023-03-21T20:31:26.229Z,7.09
2023-03-21T20:33:53.145Z,7.16
2023-03-21T20:39:08.705Z,6.92
2023-03-21T20:41:35.186Z,6.79
2023-03-21T20:46:48.313Z,6.63
2023-03-21T20:49:15.484Z,6.71
2023-03-21T20:54:30.048Z,6.94
2023-03-21T20:56:57.172Z,7.01
2023-03-21T20:59:27.605Z,7.09
2023-03-21T21:01:57.847Z,7.01
2023-03-21T21:04:44.259Z,7.05
2023-03-21T21:07:15.823Z,6.94
2023-03-21T21:09:43.825Z,6.84
2023-03-21T21:12:10.970Z,6.66
2023-03-21T21:14:38.271Z,6.47
2023-03-21T21:17:40.657Z,6.34
2023-03-21T21:19:56.378Z,6.28
2023-03-21T21:22:22.942Z,6.49
2023-03-21T21:24:49.375Z,6.69
2023-03-21T21:27:15.925Z,6.79
2023-03-21T21:29:43.248Z,6.90
2023-03-21T21:32:11.085Z,6.83
2023-03-21T21:34:37.576Z,6.72
2023-03-21T21:37:04.178Z,6.60
2023-03-21T21:39:35.103Z,6.52
2023-03-21T21:42:02.206Z,6.56
2023-03-21T21:44:28.684Z,6.42
2023-03-21T21:46:55.255Z,6.34
2023-03-21T21:49:21.736Z,6.45
2023-03-21T21:51:48.188Z,6.38
2023-03-21T21:54:18.060Z,6.33
2023-03-21T21:56:48.291Z,6.48
2023-03-21T21:59:18.518Z,6.40
2023-03-21T22:01:46.510Z,6.47
2023-03-21T22:04:14.453Z,6.30
2023-03-21T22:06:42.200Z,6.17
2023-03-21T22:09:09.448Z,6.16
2023-03-21T22:11:36.295Z,6.11
2023-03-21T22:14:03.550Z,6.19
2023-03-21T22:16:30.190Z,6.16
2023-03-21T22:18:56.811Z,6.00
2023-03-21T22:21:23.404Z,5.84
2023-03-21T22:23:49.894Z,5.81
2023-03-21T22:26:16.589Z,5.79
2023-03-21T22:28:43.575Z,5.84
2023-03-21T22:31:18.725Z,5.84
2023-03-21T22:33:45.700Z,5.81
2023-03-21T22:36:12.470Z,5.98
2023-03-21T22:38:38.993Z,6.24
2023-03-21T22:41:06.604Z,6.48
2023-03-21T22:43:34.228Z,6.65
2023-03-21T22:46:02.796Z,6.63
2023-03-21T22:48:32.826Z,6.73
2023-03-21T22:51:00.513Z,6.78
2023-03-21T22:53:26.969Z,6.82
2023-03-21T22:55:53.792Z,6.82
2023-03-21T22:58:20.689Z,6.80
2023-03-21T23:00:47.444Z,6.81
2023-03-21T23:03:16.531Z,6.92
2023-03-21T23:05:44.198Z,6.89
2023-03-21T23:08:11.514Z,6.88
2023-03-21T23:10:41.388Z,6.97
2023-03-21T23:13:08.040Z,7.05
2023-03-21T23:15:34.453Z,7.13
2023-03-21T23:18:01.063Z,7.21
2023-03-21T23:20:27.809Z,7.26
2023-03-21T23:22:54.279Z,7.25
2023-03-21T23:25:20.941Z,7.26
2023-03-21T23:27:48.000Z,7.25
2023-03-21T23:30:14.544Z,7.16
2023-03-21T23:32:41.423Z,7.18
2023-03-21T23:35:08.385Z,7.17
2023-03-21T23:37:34.928Z,7.16
2023-03-21T23:40:01.514Z,7.18
2023-03-21T23:42:29.071Z,7.27
2023-03-21T23:44:55.635Z,7.37
2023-03-21T23:47:22.110Z,7.47
2023-03-21T23:49:49.992Z,7.51
2023-03-21T23:52:16.421Z,7.51
2023-03-21T23:54:43.081Z,7.68
2023-03-21T23:57:10.324Z,7.64
2023-03-21T23:59:36.827Z,7.64
